createdAt,value
2023-03-29T00:01:35.414Z,100614.84
2023-03-29T00:04:39.044Z,100619.41
2023-03-29T00:07:42.693Z,100621.88
2023-03-29T00:10:49.242Z,100620.09
2023-03-29T00:13:52.572Z,100618.81
2023-03-29T00:16:55.850Z,100624.16
2023-03-29T00:19:59.925Z,100625.25
2023-03-29T00:23:03.364Z,100621.50
2023-03-29T00:26:08.211Z,100615.16
2023-03-29T00:29:12.425Z,100615.50
2023-03-29T00:32:15.662Z,100611.53
2023-03-29T00:35:19.958Z,100613.69
2023-03-29T00:38:23.035Z,100609.19
2023-03-29T00:41:26.296Z,100605.72
2023-03-29T00:44:54.233Z,100605.44
2023-03-29T00:48:02.708Z,100611.06
2023-03-29T00:51:09.895Z,100617.22
2023-03-29T00:54:16.194Z,100612.16
2023-03-29T00:57:21.043Z,100611.38
2023-03-29T01:00:28.649Z,100617.84
2023-03-29T01:03:36.263Z,100607.13
2023-03-29T01:06:43.517Z,100603.44
2023-03-29T01:10:02.577Z,100600.00
2023-03-29T01:13:13.387Z,100593.84
2023-03-29T01:16:19.706Z,100589.87
2023-03-29T01:19:26.602Z,100581.66
2023-03-29T01:22:51.504Z,100576.09
2023-03-29T01:26:21.243Z,100584.59
2023-03-29T01:29:32.862Z,100586.47
2023-03-29T01:32:55.656Z,100583.28
2023-03-29T01:36:08.261Z,100595.28
2023-03-29T01:39:11.655Z,100595.00
2023-03-29T01:43:05.149Z,100596.34
2023-03-29T01:46:14.849Z,100594.75
2023-03-29T01:49:34.673Z,100598.22
2023-03-29T01:53:13.344Z,100598.22
2023-03-29T01:56:20.234Z,100592.66
2023-03-29T01:59:30.541Z,100592.13
2023-03-29T02:02:33.580Z,100590.53
2023-03-29T02:05:39.690Z,100596.13
2023-03-29T02:08:43.904Z,100587.88
2023-03-29T02:11:50.528Z,100584.97
2023-03-29T02:14:56.713Z,100583.09
2023-03-29T02:18:00.264Z,100581.50
2023-03-29T02:21:04.283Z,100582.56
2023-03-29T02:24:10.184Z,100576.19
2023-03-29T02:27:14.460Z,100575.41
2023-03-29T02:30:19.260Z,100576.75
2023-03-29T02:33:27.969Z,100573.78
2023-03-29T02:36:40.683Z,100577.78
2023-03-29T02:39:44.841Z,100580.19
2023-03-29T02:42:49.501Z,100589.47
2023-03-29T02:45:53.217Z,100586.56
2023-03-29T02:48:57.488Z,100588.69
2023-03-29T02:52:03.676Z,100594.25
2023-03-29T02:55:15.089Z,100589.75
2023-03-29T02:58:18.323Z,100590.53
2023-03-29T03:01:23.140Z,100597.69
2023-03-29T03:04:26.979Z,100592.91
2023-03-29T03:07:30.408Z,100602.22
2023-03-29T03:10:37.005Z,100609.41
2023-03-29T03:13:41.373Z,100603.03
2023-03-29T03:16:44.785Z,100596.91
2023-03-29T03:19:47.860Z,100605.16
2023-03-29T03:22:51.124Z,100596.66
2023-03-29T03:25:55.457Z,100590.81
2023-03-29T03:28:59.479Z,100596.91
2023-03-29T03:32:05.635Z,100588.16
2023-03-29T03:35:11.817Z,100591.09
2023-03-29T03:38:16.747Z,100583.38
2023-03-29T03:41:20.512Z,100586.84
2023-03-29T03:44:23.564Z,100588.66
2023-03-29T03:47:30.871Z,100597.44
2023-03-29T03:50:34.256Z,100597.72
2023-03-29T03:53:38.882Z,100604.34
2023-03-29T03:56:43.676Z,100601.41
2023-03-29T03:59:49.159Z,100597.47
2023-03-29T04:02:54.570Z,100604.91
2023-03-29T04:06:00.125Z,100604.09
2023-03-29T04:09:05.619Z,100601.69
2023-03-29T04:12:14.948Z,100609.16
2023-03-29T04:15:20.412Z,100607.53
2023-03-29T04:18:26.993Z,100603.31
2023-03-29T04:21:30.759Z,100603.03
2023-03-29T04:24:34.009Z,100592.13
2023-03-29T04:27:39.151Z,100590.81
2023-03-29T04:30:46.565Z,100592.16
2023-03-29T04:33:51.698Z,100594.00
2023-03-29T04:36:55.133Z,100598.78
2023-03-29T04:40:04.083Z,100602.78
2023-03-29T04:43:12.379Z,100608.34
2023-03-29T04:46:17.169Z,100617.38
2023-03-29T04:52:25.183Z,100611.81
2023-03-29T04:55:29.539Z,100614.72
2023-03-29T04:58:34.671Z,100621.09
2023-03-29T05:01:38.019Z,100620.59
2023-03-29T05:04:41.738Z,100620.03
2023-03-29T05:07:45.429Z,100619.25
2023-03-29T05:10:50.073Z,100631.19
2023-03-29T05:13:57.304Z,100632.50
2023-03-29T05:20:10.461Z,100631.69
2023-03-29T05:23:13.686Z,100623.41
2023-03-29T05:26:20.421Z,100630.31
2023-03-29T05:29:23.741Z,100618.62
2023-03-29T05:32:28.984Z,100617.97
2023-03-29T05:35:33.726Z,100606.81
2023-03-29T05:38:40.641Z,100614.31
2023-03-29T05:41:44.867Z,100619.28
2023-03-29T05:44:48.722Z,100615.22
2023-03-29T05:47:52.851Z,100624.78
2023-03-29T05:50:57.987Z,100625.25
2023-03-29T05:54:02.155Z,100628.34
2023-03-29T05:57:06.179Z,100634.66
2023-03-29T06:00:25.966Z,100635.47
2023-03-29T06:03:30.064Z,100641.16
2023-03-29T06:06:34.124Z,100629.59
2023-03-29T06:09:38.825Z,100630.50
2023-03-29T06:12:42.211Z,100639.59
2023-03-29T06:15:47.034Z,100639.69
2023-03-29T06:18:52.439Z,100638.28
2023-03-29T06:21:55.684Z,100646.63
2023-03-29T06:24:59.956Z,100640.37
2023-03-29T06:28:04.224Z,100646.94
2023-03-29T06:31:10.299Z,100646.50
2023-03-29T06:34:14.502Z,100644.50
2023-03-29T06:37:20.168Z,100641.78
2023-03-29T06:40:25.102Z,100642.94
2023-03-29T06:43:28.203Z,100646.97
2023-03-29T06:46:35.764Z,100650.28
2023-03-29T06:49:41.169Z,100659.00
2023-03-29T06:52:46.206Z,100655.47
2023-03-29T06:55:51.989Z,100655.62
2023-03-29T06:58:56.909Z,100662.50
2023-03-29T07:02:01.154Z,100668.44
2023-03-29T07:05:11.457Z,100664.37
2023-03-29T07:08:16.599Z,100669.22
2023-03-29T07:11:20.517Z,100677.87
2023-03-29T07:14:26.511Z,100688.09
2023-03-29T07:17:29.796Z,100694.03
2023-03-29T07:20:33.881Z,100697.63
2023-03-29T07:23:37.678Z,100690.72
2023-03-29T07:26:46.331Z,100686.78
2023-03-29T07:29:57.108Z,100689.84
2023-03-29T07:33:00.646Z,100694.81
2023-03-29T07:36:05.291Z,100695.81
2023-03-29T07:39:13.180Z,100706.12
2023-03-29T07:42:18.784Z,100699.69
2023-03-29T07:45:26.656Z,100701.75
2023-03-29T07:48:33.877Z,100707.41
2023-03-29T07:51:38.418Z,100713.09
2023-03-29T07:54:42.641Z,100722.00
2023-03-29T07:57:46.460Z,100714.87
2023-03-29T08:00:50.884Z,100710.81
2023-03-29T08:03:55.309Z,100709.41
2023-03-29T08:06:59.130Z,100705.72
2023-03-29T08:10:03.782Z,100695.97
2023-03-29T08:13:08.571Z,100693.28
2023-03-29T08:16:12.024Z,100702.19
2023-03-29T08:19:16.757Z,100701.72
2023-03-29T08:22:22.149Z,100705.13
2023-03-29T08:25:35.850Z,100705.22
2023-03-29T08:28:39.657Z,100694.41
2023-03-29T08:31:43.075Z,100695.94
2023-03-29T08:34:47.127Z,100709.06
2023-03-29T08:37:51.428Z,100708.78
2023-03-29T08:40:55.545Z,100705.34
2023-03-29T08:44:20.689Z,100709.31
2023-03-29T08:47:39.832Z,100703.16
2023-03-29T08:50:48.115Z,100705.78
2023-03-29T08:54:01.952Z,100704.31
2023-03-29T08:57:31.852Z,100693.59
2023-03-29T09:00:47.266Z,100697.41
2023-03-29T09:03:57.302Z,100687.63
2023-03-29T09:07:03.539Z,100680.47
2023-03-29T09:10:14.586Z,100670.63
2023-03-29T09:13:36.644Z,100663.41
2023-03-29T09:17:03.778Z,100661.38
2023-03-29T09:20:28.150Z,100653.03
2023-03-29T09:23:55.782Z,100654.97
2023-03-29T09:27:21.229Z,100650.84
2023-03-29T09:30:41.962Z,100635.81
2023-03-29T09:34:15.864Z,100635.34
2023-03-29T09:37:33.843Z,100651.28
2023-03-29T09:40:44.637Z,100646.53
2023-03-29T09:43:50.058Z,100645.28
2023-03-29T09:46:57.805Z,100641.56
2023-03-29T09:50:30.351Z,100639.06
2023-03-29T09:53:35.852Z,100632.59
2023-03-29T09:56:39.969Z,100630.94
2023-03-29T09:59:46.297Z,100624.16
2023-03-29T10:02:53.926Z,100622.38
2023-03-29T10:06:02.822Z,100621.16
2023-03-29T10:09:15.636Z,100622.03
2023-03-29T10:12:20.068Z,100617.19
2023-03-29T10:15:29.662Z,100615.47
2023-03-29T10:18:41.656Z,100605.47
2023-03-29T10:21:46.323Z,100607.59
2023-03-29T10:24:52.410Z,100595.50
2023-03-29T10:28:02.645Z,100600.28
2023-03-29T10:31:08.414Z,100593.88
2023-03-29T10:34:15.345Z,100590.97
2023-03-29T10:37:20.031Z,100592.56
2023-03-29T10:40:28.730Z,100591.34
2023-03-29T10:43:51.845Z,100592.69
2023-03-29T10:46:56.313Z,100584.50
2023-03-29T10:49:59.563Z,100580.97
2023-03-29T10:53:03.283Z,100584.34
2023-03-29T10:56:54.733Z,100566.81
2023-03-29T11:00:07.154Z,100574.78
2023-03-29T11:03:26.337Z,100566.72
2023-03-29T11:06:49.253Z,100554.22
2023-03-29T11:10:06.687Z,100561.19
2023-03-29T11:13:22.262Z,100554.63
2023-03-29T11:16:49.882Z,100546.78
2023-03-29T11:20:19.627Z,100545.53
2023-03-29T11:23:29.904Z,100543.13
2023-03-29T11:26:36.394Z,100536.72
2023-03-29T11:30:18.272Z,100527.47
2023-03-29T11:33:44.722Z,100515.25
2023-03-29T11:37:20.656Z,100520.50
2023-03-29T11:40:52.653Z,100508.31
2023-03-29T11:43:56.998Z,100506.28
2023-03-29T11:47:07.483Z,100501.59
2023-03-29T11:50:24.536Z,100495.81
2023-03-29T11:53:31.683Z,100493.19
2023-03-29T11:56:49.230Z,100485.53
2023-03-29T12:00:00.024Z,100487.44
2023-03-29T12:03:13.991Z,100487.84
2023-03-29T12:06:32.122Z,100478.00
2023-03-29T12:09:39.681Z,100468.09
2023-03-29T12:12:47.316Z,100464.28
2023-03-29T12:15:54.570Z,100464.63
2023-03-29T12:19:01.745Z,100453.75
2023-03-29T12:22:07.972Z,100457.91
2023-03-29T12:25:18.778Z,100455.69
2023-03-29T12:28:26.005Z,100456.00
2023-03-29T12:32:05.606Z,100441.13
2023-03-29T12:35:27.706Z,100444.16
2023-03-29T12:38:32.834Z,100441.72
2023-03-29T12:41:38.493Z,100442.22
2023-03-29T12:44:50.461Z,100437.28
2023-03-29T12:47:55.251Z,100442.88
2023-03-29T12:51:04.290Z,100443.22
2023-03-29T12:54:20.331Z,100441.22
2023-03-29T12:57:38.607Z,100434.53
2023-03-29T13:00:44.492Z,100428.38
2023-03-29T13:03:56.159Z,100421.31
2023-03-29T13:07:04.720Z,100410.78
2023-03-29T13:10:09.770Z,100411.94
2023-03-29T13:13:19.279Z,100401.12
2023-03-29T13:16:31.138Z,100401.44
2023-03-29T13:20:01.692Z,100409.72
2023-03-29T13:23:17.030Z,100398.72
2023-03-29T13:26:42.902Z,100394.44
2023-03-29T13:30:09.377Z,100390.81
2023-03-29T13:33:35.373Z,100390.28
2023-03-29T13:37:33.079Z,100393.06
2023-03-29T13:40:53.001Z,100374.03
2023-03-29T13:43:56.838Z,100383.91
2023-03-29T13:47:16.678Z,100378.69
2023-03-29T13:50:33.508Z,100380.72
2023-03-29T13:54:01.021Z,100378.75
2023-03-29T13:57:17.914Z,100375.59
2023-03-29T14:00:26.998Z,100372.53
2023-03-29T14:03:35.084Z,100366.84
2023-03-29T14:06:38.466Z,100357.50
2023-03-29T14:09:45.200Z,100363.88
2023-03-29T14:12:48.291Z,100362.50
2023-03-29T14:16:09.179Z,100366.78
2023-03-29T14:19:15.529Z,100342.88
2023-03-29T14:22:22.036Z,100347.03
2023-03-29T14:25:25.634Z,100342.84
2023-03-29T14:28:29.075Z,100337.50
2023-03-29T14:31:32.026Z,100343.72
2023-03-29T14:34:35.661Z,100332.31
2023-03-29T14:37:38.823Z,100334.75
2023-03-29T14:40:44.484Z,100334.44
2023-03-29T14:43:47.655Z,100344.06
2023-03-29T14:46:51.197Z,100328.75
2023-03-29T14:49:56.293Z,100323.69
2023-03-29T14:53:00.766Z,100328.91
2023-03-29T14:56:04.904Z,100326.72
2023-03-29T14:59:24.495Z,100321.97
2023-03-29T15:02:29.912Z,100325.13
2023-03-29T15:05:39.153Z,100322.88
2023-03-29T15:08:50.853Z,100322.09
2023-03-29T15:12:02.676Z,100307.28
2023-03-29T15:15:07.864Z,100315.97
2023-03-29T15:18:15.185Z,100310.97
2023-03-29T15:21:22.853Z,100308.19
2023-03-29T15:24:31.594Z,100313.09
2023-03-29T15:27:42.643Z,100310.69
2023-03-29T15:30:54.169Z,100305.75
2023-03-29T15:34:14.937Z,100302.78
2023-03-29T15:37:18.248Z,100311.56
2023-03-29T15:40:24.064Z,100296.34
2023-03-29T15:43:27.632Z,100302.22
2023-03-29T15:46:32.307Z,100287.81
2023-03-29T15:49:35.590Z,100297.50
2023-03-29T15:52:39.742Z,100286.03
2023-03-29T15:55:51.536Z,100283.00
2023-03-29T15:58:54.526Z,100281.72
2023-03-29T16:01:58.928Z,100273.91
2023-03-29T16:05:02.284Z,100276.09
2023-03-29T16:08:05.282Z,100265.69
2023-03-29T16:11:09.326Z,100277.59
2023-03-29T16:14:23.282Z,100286.75
2023-03-29T16:17:26.496Z,100283.84
2023-03-29T16:20:30.136Z,100282.91
2023-03-29T16:23:33.400Z,100277.84
2023-03-29T16:26:36.788Z,100278.00
2023-03-29T16:29:40.187Z,100278.81
2023-03-29T16:32:56.388Z,100273.59
2023-03-29T16:36:06.695Z,100273.09
2023-03-29T16:39:11.317Z,100281.97
2023-03-29T16:42:14.702Z,100284.87
2023-03-29T16:45:19.513Z,100285.31
2023-03-29T16:48:24.134Z,100282.47
2023-03-29T16:51:27.239Z,100278.28
2023-03-29T16:54:31.804Z,100277.72
2023-03-29T16:57:34.858Z,100272.53
2023-03-29T17:00:38.983Z,100275.97
2023-03-29T17:03:43.164Z,100273.88
2023-03-29T17:06:48.680Z,100264.41
2023-03-29T17:09:52.654Z,100263.09
2023-03-29T17:12:56.231Z,100262.72
2023-03-29T17:15:59.364Z,100262.34
2023-03-29T17:19:02.673Z,100272.53
2023-03-29T17:22:06.416Z,100273.25
2023-03-29T17:25:12.020Z,100275.19
2023-03-29T17:28:15.926Z,100276.03
2023-03-29T17:31:19.874Z,100281.13
2023-03-29T17:34:23.401Z,100292.22
2023-03-29T17:37:29.524Z,100288.97
2023-03-29T17:40:33.603Z,100289.50
2023-03-29T17:43:39.464Z,100291.81
2023-03-29T17:46:42.604Z,100284.72
2023-03-29T17:49:46.441Z,100304.31
2023-03-29T17:52:49.935Z,100299.50
2023-03-29T17:55:53.558Z,100308.53
2023-03-29T17:58:57.479Z,100304.81
2023-03-29T18:02:04.034Z,100319.66
2023-03-29T18:05:09.599Z,100319.22
2023-03-29T18:08:15.136Z,100326.62
2023-03-29T18:11:23.010Z,100328.87
2023-03-29T18:14:30.294Z,100322.37
2023-03-29T18:17:36.309Z,100332.59
2023-03-29T18:20:40.386Z,100331.72
2023-03-29T18:23:47.652Z,100336.31
2023-03-29T18:26:52.537Z,100338.78
2023-03-29T18:29:56.714Z,100341.06
2023-03-29T18:33:00.407Z,100347.56
2023-03-29T18:36:12.689Z,100347.91
2023-03-29T18:39:18.492Z,100345.31
2023-03-29T18:42:22.282Z,100337.44
2023-03-29T18:45:26.967Z,100337.88
2023-03-29T18:48:34.173Z,100341.94
2023-03-29T18:51:41.788Z,100342.72
2023-03-29T18:54:46.712Z,100343.62
2023-03-29T18:57:51.808Z,100343.31
2023-03-29T19:01:01.962Z,100339.81
2023-03-29T19:04:06.363Z,100347.12
2023-03-29T19:07:11.245Z,100339.38
2023-03-29T19:10:20.241Z,100347.38
2023-03-29T19:13:24.978Z,100348.69
2023-03-29T19:16:29.437Z,100342.50
2023-03-29T19:19:34.501Z,100346.84
2023-03-29T19:22:39.137Z,100345.31
2023-03-29T19:25:44.000Z,100341.81
2023-03-29T19:28:47.929Z,100337.22
2023-03-29T19:31:52.775Z,100337.75
2023-03-29T19:34:57.185Z,100340.78
2023-03-29T19:38:06.325Z,100334.47
2023-03-29T19:41:13.276Z,100331.56
2023-03-29T19:44:20.165Z,100342.22
2023-03-29T19:47:24.112Z,100333.56
2023-03-29T19:50:31.753Z,100336.53
2023-03-29T19:53:38.392Z,100331.66
2023-03-29T19:56:43.612Z,100330.84
2023-03-29T19:59:47.221Z,100321.72
2023-03-29T20:02:51.521Z,100330.28
2023-03-29T20:05:57.671Z,100315.34
2023-03-29T20:09:17.653Z,100316.22
2023-03-29T20:12:22.878Z,100310.38
2023-03-29T20:15:26.302Z,100310.63
2023-03-29T20:18:30.165Z,100320.78
2023-03-29T20:21:34.423Z,100317.28
2023-03-29T20:24:39.359Z,100305.16
2023-03-29T20:27:42.893Z,100306.78
2023-03-29T20:30:51.210Z,100306.19
2023-03-29T20:33:55.771Z,100303.88
2023-03-29T20:37:02.261Z,100300.94
2023-03-29T20:40:08.348Z,100301.03
2023-03-29T20:43:13.739Z,100302.75
2023-03-29T20:46:22.887Z,100297.44
2023-03-29T20:49:26.682Z,100300.38
2023-03-29T20:52:30.786Z,100294.94
2023-03-29T20:55:38.206Z,100296.66
2023-03-29T20:58:42.310Z,100292.47
2023-03-29T21:01:47.273Z,100291.13
2023-03-29T21:04:52.793Z,100294.75
2023-03-29T21:07:58.190Z,100293.97
2023-03-29T21:11:01.530Z,100288.91
2023-03-29T21:14:05.759Z,100290.94
2023-03-29T21:17:09.561Z,100290.03
2023-03-29T21:20:13.279Z,100285.31
2023-03-29T21:23:16.447Z,100282.56
2023-03-29T21:26:19.813Z,100277.97
2023-03-29T21:29:22.830Z,100281.00
2023-03-29T21:32:26.099Z,100290.31
2023-03-29T21:35:29.097Z,100290.59
2023-03-29T21:38:32.387Z,100281.63
2023-03-29T21:41:35.521Z,100272.28
2023-03-29T21:44:38.493Z,100283.97
2023-03-29T21:47:41.487Z,100285.06
2023-03-29T21:50:46.074Z,100283.38
2023-03-29T21:53:49.022Z,100277.41
2023-03-29T21:56:53.907Z,100282.13
2023-03-29T21:59:56.919Z,100285.59
2023-03-29T22:03:00.360Z,100281.16
2023-03-29T22:06:08.679Z,100281.78
2023-03-29T22:09:11.586Z,100279.91
2023-03-29T22:12:14.845Z,100274.19
2023-03-29T22:15:20.748Z,100275.44
2023-03-29T22:18:28.130Z,100265.72
2023-03-29T22:21:32.044Z,100270.94
2023-03-29T22:24:35.564Z,100268.78
2023-03-29T22:27:38.860Z,100262.03
2023-03-29T22:30:42.111Z,100268.25
2023-03-29T22:33:46.283Z,100269.50
2023-03-29T22:36:49.595Z,100271.91
2023-03-29T22:39:52.557Z,100273.59
2023-03-29T22:42:56.060Z,100274.53
2023-03-29T22:45:59.022Z,100271.97
2023-03-29T22:49:02.846Z,100274.78
2023-03-29T22:52:05.976Z,100287.38
2023-03-29T22:55:09.819Z,100291.44
2023-03-29T22:58:12.881Z,100288.28
2023-03-29T23:01:16.335Z,100285.59
2023-03-29T23:04:19.345Z,100284.69
2023-03-29T23:07:22.584Z,100284.22
2023-03-29T23:10:31.482Z,100281.22
2023-03-29T23:13:35.343Z,100287.84
2023-03-29T23:16:38.332Z,100285.94
2023-03-29T23:19:41.752Z,100288.56
2023-03-29T23:22:44.961Z,100283.38
2023-03-29T23:25:49.401Z,100287.56
2023-03-29T23:28:54.479Z,100289.44
2023-03-29T23:31:57.706Z,100284.87
2023-03-29T23:35:00.608Z,100279.44
2023-03-29T23:38:05.637Z,100277.37
2023-03-29T23:41:10.489Z,100277.06
2023-03-29T23:44:13.792Z,100269.94
2023-03-29T23:47:18.218Z,100270.28
2023-03-29T23:50:23.797Z,100268.00
2023-03-29T23:53:29.481Z,100261.78
2023-03-29T23:56:32.713Z,100256.25
2023-03-29T23:59:38.038Z,100251.63
